sensor_id;sensor_type;location;lat;lon;timestamp;P1;durP1;ratioP1;P2;durP2;ratioP2
9801;SDS011;4940;50.900;4.672;2023-03-01T00:01:34;14.17;;;7.03;;
9801;SDS011;4940;50.900;4.672;2023-03-01T00:04:01;13.53;;;7.20;;
9801;SDS011;4940;50.900;4.672;2023-03-01T00:06:28;14.77;;;7.00;;
9801;SDS011;4940;50.900;4.672;2023-03-01T00:08:56;10.93;;;6.63;;
9801;SDS011;4940;50.900;4.672;2023-03-01T00:11:24;13.13;;;6.93;;
9801;SDS011;4940;50.900;4.672;2023-03-01T00:13:53;14.23;;;7.10;;
9801;SDS011;4940;50.900;4.672;2023-03-01T00:16:22;12.83;;;6.77;;
9801;SDS011;4940;50.900;4.672;2023-03-01T00:18:54;16.07;;;7.37;;
9801;SDS011;4940;50.900;4.672;2023-03-01T00:21:22;15.47;;;6.70;;
9801;SDS011;4940;50.900;4.672;2023-03-01T00:23:50;13.10;;;6.57;;
9801;SDS011;4940;50.900;4.672;2023-03-01T00:26:18;13.63;;;7.37;;
9801;SDS011;4940;50.900;4.672;2023-03-01T00:28:46;12.87;;;6.50;;
9801;SDS011;4940;50.900;4.672;2023-03-01T00:31:14;12.30;;;7.00;;
9801;SDS011;4940;50.900;4.672;2023-03-01T00:33:42;13.73;;;7.10;;
9801;SDS011;4940;50.900;4.672;2023-03-01T00:36:12;14.93;;;6.97;;
9801;SDS011;4940;50.900;4.672;2023-03-01T00:38:42;14.60;;;6.60;;
9801;SDS011;4940;50.900;4.672;2023-03-01T00:41:11;11.87;;;6.10;;
9801;SDS011;4940;50.900;4.672;2023-03-01T00:43:39;12.83;;;6.40;;
9801;SDS011;4940;50.900;4.672;2023-03-01T00:46:08;15.30;;;7.10;;
9801;SDS011;4940;50.900;4.672;2023-03-01T00:48:36;13.80;;;7.03;;
9801;SDS011;4940;50.900;4.672;2023-03-01T00:51:04;13.93;;;6.37;;
9801;SDS011;4940;50.900;4.672;2023-03-01T00:53:34;12.67;;;6.23;;
9801;SDS011;4940;50.900;4.672;2023-03-01T00:56:02;13.40;;;6.30;;
9801;SDS011;4940;50.900;4.672;2023-03-01T00:58:30;15.17;;;6.57;;
9801;SDS011;4940;50.900;4.672;2023-03-01T01:00:58;12.33;;;6.83;;
9801;SDS011;4940;50.900;4.672;2023-03-01T01:03:26;13.60;;;7.10;;
9801;SDS011;4940;50.900;4.672;2023-03-01T01:05:53;12.60;;;6.80;;
9801;SDS011;4940;50.900;4.672;2023-03-01T01:08:20;12.23;;;6.43;;
9801;SDS011;4940;50.900;4.672;2023-03-01T01:10:49;13.80;;;6.73;;
9801;SDS011;4940;50.900;4.672;2023-03-01T01:13:16;11.63;;;6.70;;
9801;SDS011;4940;50.900;4.672;2023-03-01T01:15:44;13.80;;;6.47;;
9801;SDS011;4940;50.900;4.672;2023-03-01T01:18:11;10.30;;;5.90;;
9801;SDS011;4940;50.900;4.672;2023-03-01T01:20:38;13.17;;;6.37;;
9801;SDS011;4940;50.900;4.672;2023-03-01T01:23:06;12.20;;;6.50;;
9801;SDS011;4940;50.900;4.672;2023-03-01T01:25:34;14.47;;;6.43;;
9801;SDS011;4940;50.900;4.672;2023-03-01T01:28:03;10.80;;;6.33;;
9801;SDS011;4940;50.900;4.672;2023-03-01T01:30:31;13.40;;;6.30;;
9801;SDS011;4940;50.900;4.672;2023-03-01T01:32:58;13.43;;;6.77;;
9801;SDS011;4940;50.900;4.672;2023-03-01T01:35:25;12.97;;;6.00;;
9801;SDS011;4940;50.900;4.672;2023-03-01T01:37:54;12.37;;;5.83;;
9801;SDS011;4940;50.900;4.672;2023-03-01T01:40:21;11.37;;;5.27;;
9801;SDS011;4940;50.900;4.672;2023-03-01T01:42:49;12.03;;;6.23;;
9801;SDS011;4940;50.900;4.672;2023-03-01T01:45:28;12.30;;;6.47;;
9801;SDS011;4940;50.900;4.672;2023-03-01T01:47:59;11.63;;;6.13;;
9801;SDS011;4940;50.900;4.672;2023-03-01T01:50:27;9.10;;;5.57;;
9801;SDS011;4940;50.900;4.672;2023-03-01T01:53:03;10.33;;;5.87;;
9801;SDS011;4940;50.900;4.672;2023-03-01T01:55:33;9.73;;;5.67;;
9801;SDS011;4940;50.900;4.672;2023-03-01T01:58:04;13.47;;;6.30;;
9801;SDS011;4940;50.900;4.672;2023-03-01T02:00:34;13.27;;;6.10;;
9801;SDS011;4940;50.900;4.672;2023-03-01T02:03:04;12.23;;;6.23;;
9801;SDS011;4940;50.900;4.672;2023-03-01T02:05:36;14.80;;;6.43;;
9801;SDS011;4940;50.900;4.672;2023-03-01T02:08:10;12.50;;;5.97;;
9801;SDS011;4940;50.900;4.672;2023-03-01T02:10:39;9.83;;;5.83;;
9801;SDS011;4940;50.900;4.672;2023-03-01T02:13:07;11.30;;;6.13;;
9801;SDS011;4940;50.900;4.672;2023-03-01T02:15:38;12.63;;;5.53;;
9801;SDS011;4940;50.900;4.672;2023-03-01T02:20:51;10.77;;;5.60;;
9801;SDS011;4940;50.900;4.672;2023-03-01T02:23:29;11.40;;;6.33;;
9801;SDS011;4940;50.900;4.672;2023-03-01T02:26:00;9.63;;;6.07;;
9801;SDS011;4940;50.900;4.672;2023-03-01T02:28:31;11.53;;;5.47;;
9801;SDS011;4940;50.900;4.672;2023-03-01T02:31:00;13.33;;;5.93;;
9801;SDS011;4940;50.900;4.672;2023-03-01T02:33:47;10.70;;;5.33;;
9801;SDS011;4940;50.900;4.672;2023-03-01T02:36:15;11.33;;;5.77;;
9801;SDS011;4940;50.900;4.672;2023-03-01T02:38:43;17.03;;;6.00;;
9801;SDS011;4940;50.900;4.672;2023-03-01T02:41:11;10.43;;;6.07;;
9801;SDS011;4940;50.900;4.672;2023-03-01T02:43:43;10.77;;;6.00;;
9801;SDS011;4940;50.900;4.672;2023-03-01T02:46:13;12.00;;;5.90;;
9801;SDS011;4940;50.900;4.672;2023-03-01T02:48:43;10.17;;;5.53;;
9801;SDS011;4940;50.900;4.672;2023-03-01T02:51:14;11.50;;;5.83;;
9801;SDS011;4940;50.900;4.672;2023-03-01T02:53:55;11.23;;;5.93;;
9801;SDS011;4940;50.900;4.672;2023-03-01T02:56:31;9.87;;;5.63;;
9801;SDS011;4940;50.900;4.672;2023-03-01T02:59:00;10.07;;;5.37;;
9801;SDS011;4940;50.900;4.672;2023-03-01T03:01:27;8.47;;;5.27;;
9801;SDS011;4940;50.900;4.672;2023-03-01T03:04:02;9.67;;;6.10;;
9801;SDS011;4940;50.900;4.672;2023-03-01T03:06:30;12.77;;;5.70;;
9801;SDS011;4940;50.900;4.672;2023-03-01T03:08:57;18.73;;;6.50;;
9801;SDS011;4940;50.900;4.672;2023-03-01T03:11:25;10.27;;;5.50;;
9801;SDS011;4940;50.900;4.672;2023-03-01T03:13:52;9.80;;;5.57;;
9801;SDS011;4940;50.900;4.672;2023-03-01T03:16:21;11.20;;;5.90;;
9801;SDS011;4940;50.900;4.672;2023-03-01T03:18:49;9.57;;;5.73;;
9801;SDS011;4940;50.900;4.672;2023-03-01T03:21:17;12.70;;;5.60;;
9801;SDS011;4940;50.900;4.672;2023-03-01T03:23:44;10.27;;;5.80;;
9801;SDS011;4940;50.900;4.672;2023-03-01T03:26:12;12.83;;;6.03;;
9801;SDS011;4940;50.900;4.672;2023-03-01T03:28:40;11.07;;;5.80;;
9801;SDS011;4940;50.900;4.672;2023-03-01T03:31:07;9.87;;;5.23;;
9801;SDS011;4940;50.900;4.672;2023-03-01T03:33:36;9.20;;;5.40;;
9801;SDS011;4940;50.900;4.672;2023-03-01T03:36:04;12.20;;;5.93;;
9801;SDS011;4940;50.900;4.672;2023-03-01T03:38:31;11.57;;;5.60;;
9801;SDS011;4940;50.900;4.672;2023-03-01T03:41:00;16.50;;;5.93;;
9801;SDS011;4940;50.900;4.672;2023-03-01T03:43:30;12.47;;;5.93;;
9801;SDS011;4940;50.900;4.672;2023-03-01T03:45:58;10.20;;;5.63;;
9801;SDS011;4940;50.900;4.672;2023-03-01T03:48:25;10.13;;;5.30;;
9801;SDS011;4940;50.900;4.672;2023-03-01T03:50:55;14.63;;;5.90;;
9801;SDS011;4940;50.900;4.672;2023-03-01T03:53:25;11.80;;;5.80;;
9801;SDS011;4940;50.900;4.672;2023-03-01T03:55:54;11.00;;;5.80;;
9801;SDS011;4940;50.900;4.672;2023-03-01T03:58:22;14.63;;;6.10;;
9801;SDS011;4940;50.900;4.672;2023-03-01T04:00:50;10.87;;;6.00;;
9801;SDS011;4940;50.900;4.672;2023-03-01T04:03:18;9.63;;;5.37;;
9801;SDS011;4940;50.900;4.672;2023-03-01T04:05:47;14.23;;;5.87;;
9801;SDS011;4940;50.900;4.672;2023-03-01T04:08:17;11.07;;;5.43;;
9801;SDS011;4940;50.900;4.672;2023-03-01T04:10:46;11.13;;;5.73;;
9801;SDS011;4940;50.900;4.672;2023-03-01T04:13:16;11.73;;;5.43;;
9801;SDS011;4940;50.900;4.672;2023-03-01T04:15:45;11.87;;;6.73;;
9801;SDS011;4940;50.900;4.672;2023-03-01T04:18:12;10.53;;;5.43;;
9801;SDS011;4940;50.900;4.672;2023-03-01T04:20:41;10.27;;;5.93;;
9801;SDS011;4940;50.900;4.672;2023-03-01T04:23:11;17.30;;;5.73;;
9801;SDS011;4940;50.900;4.672;2023-03-01T04:25:45;10.80;;;6.30;;
9801;SDS011;4940;50.900;4.672;2023-03-01T04:28:20;8.90;;;5.07;;
9801;SDS011;4940;50.900;4.672;2023-03-01T04:30:49;12.23;;;6.77;;
9801;SDS011;4940;50.900;4.672;2023-03-01T04:33:16;10.60;;;5.10;;
9801;SDS011;4940;50.900;4.672;2023-03-01T04:35:44;13.17;;;5.90;;
9801;SDS011;4940;50.900;4.672;2023-03-01T04:38:14;13.40;;;5.77;;
9801;SDS011;4940;50.900;4.672;2023-03-01T04:40:43;9.60;;;5.97;;
9801;SDS011;4940;50.900;4.672;2023-03-01T04:43:11;10.87;;;5.97;;
9801;SDS011;4940;50.900;4.672;2023-03-01T04:45:39;10.57;;;6.17;;
9801;SDS011;4940;50.900;4.672;2023-03-01T04:48:07;13.33;;;5.87;;
9801;SDS011;4940;50.900;4.672;2023-03-01T04:50:34;12.43;;;5.40;;
9801;SDS011;4940;50.900;4.672;2023-03-01T04:53:02;13.47;;;6.43;;
9801;SDS011;4940;50.900;4.672;2023-03-01T04:55:29;10.73;;;5.80;;
9801;SDS011;4940;50.900;4.672;2023-03-01T04:57:58;11.83;;;5.47;;
9801;SDS011;4940;50.900;4.672;2023-03-01T05:00:26;12.27;;;6.20;;
9801;SDS011;4940;50.900;4.672;2023-03-01T05:02:54;10.83;;;5.10;;
9801;SDS011;4940;50.900;4.672;2023-03-01T05:05:23;10.97;;;5.83;;
9801;SDS011;4940;50.900;4.672;2023-03-01T05:07:52;12.43;;;5.93;;
9801;SDS011;4940;50.900;4.672;2023-03-01T05:10:20;11.53;;;5.77;;
9801;SDS011;4940;50.900;4.672;2023-03-01T05:12:47;10.37;;;5.97;;
9801;SDS011;4940;50.900;4.672;2023-03-01T05:15:17;8.10;;;5.03;;
9801;SDS011;4940;50.900;4.672;2023-03-01T05:17:44;12.70;;;6.40;;
9801;SDS011;4940;50.900;4.672;2023-03-01T05:20:11;10.50;;;5.37;;
9801;SDS011;4940;50.900;4.672;2023-03-01T05:22:39;9.70;;;6.00;;
9801;SDS011;4940;50.900;4.672;2023-03-01T05:25:06;9.67;;;5.33;;
9801;SDS011;4940;50.900;4.672;2023-03-01T05:27:34;11.37;;;5.83;;
9801;SDS011;4940;50.900;4.672;2023-03-01T05:30:01;11.07;;;6.33;;
9801;SDS011;4940;50.900;4.672;2023-03-01T05:32:40;14.37;;;6.33;;
9801;SDS011;4940;50.900;4.672;2023-03-01T05:35:09;11.13;;;5.67;;
9801;SDS011;4940;50.900;4.672;2023-03-01T05:37:38;10.30;;;5.73;;
9801;SDS011;4940;50.900;4.672;2023-03-01T05:40:10;10.77;;;5.70;;
9801;SDS011;4940;50.900;4.672;2023-03-01T05:42:42;10.47;;;5.80;;
9801;SDS011;4940;50.900;4.672;2023-03-01T05:45:10;10.53;;;6.07;;
9801;SDS011;4940;50.900;4.672;2023-03-01T05:47:38;10.93;;;5.90;;
9801;SDS011;4940;50.900;4.672;2023-03-01T05:50:11;12.87;;;6.03;;
9801;SDS011;4940;50.900;4.672;2023-03-01T05:52:39;11.10;;;5.77;;
9801;SDS011;4940;50.900;4.672;2023-03-01T05:55:06;11.77;;;6.13;;
9801;SDS011;4940;50.900;4.672;2023-03-01T05:57:34;9.10;;;5.87;;
9801;SDS011;4940;50.900;4.672;2023-03-01T06:00:01;12.17;;;5.73;;
9801;SDS011;4940;50.900;4.672;2023-03-01T06:02:31;11.30;;;6.20;;
9801;SDS011;4940;50.900;4.672;2023-03-01T06:04:58;12.37;;;5.97;;
9801;SDS011;4940;50.900;4.672;2023-03-01T06:07:27;12.17;;;6.33;;
9801;SDS011;4940;50.900;4.672;2023-03-01T06:09:55;9.50;;;5.43;;
9801;SDS011;4940;50.900;4.672;2023-03-01T06:12:22;9.37;;;5.30;;
9801;SDS011;4940;50.900;4.672;2023-03-01T06:14:49;11.43;;;5.97;;
9801;SDS011;4940;50.900;4.672;2023-03-01T06:17:17;10.40;;;5.97;;
9801;SDS011;4940;50.900;4.672;2023-03-01T06:19:44;9.63;;;5.60;;
9801;SDS011;4940;50.900;4.672;2023-03-01T06:22:13;11.93;;;5.57;;
9801;SDS011;4940;50.900;4.672;2023-03-01T06:24:42;12.40;;;6.37;;
9801;SDS011;4940;50.900;4.672;2023-03-01T06:27:09;10.37;;;6.03;;
9801;SDS011;4940;50.900;4.672;2023-03-01T06:29:37;17.37;;;6.33;;
9801;SDS011;4940;50.900;4.672;2023-03-01T06:32:04;11.57;;;5.73;;
9801;SDS011;4940;50.900;4.672;2023-03-01T06:34:33;11.30;;;5.73;;
9801;SDS011;4940;50.900;4.672;2023-03-01T06:37:00;10.00;;;6.20;;
9801;SDS011;4940;50.900;4.672;2023-03-01T06:39:30;10.43;;;5.53;;
9801;SDS011;4940;50.900;4.672;2023-03-01T06:41:59;14.53;;;6.03;;
9801;SDS011;4940;50.900;4.672;2023-03-01T06:44:26;12.97;;;6.63;;
9801;SDS011;4940;50.900;4.672;2023-03-01T06:46:54;9.53;;;5.73;;
9801;SDS011;4940;50.900;4.672;2023-03-01T06:49:21;16.57;;;6.70;;
9801;SDS011;4940;50.900;4.672;2023-03-01T06:51:49;13.93;;;6.60;;
9801;SDS011;4940;50.900;4.672;2023-03-01T06:54:16;13.20;;;6.93;;
9801;SDS011;4940;50.900;4.672;2023-03-01T06:56:46;12.57;;;6.37;;
9801;SDS011;4940;50.900;4.672;2023-03-01T06:59:15;12.57;;;6.17;;
9801;SDS011;4940;50.900;4.672;2023-03-01T07:01:43;11.10;;;6.90;;
9801;SDS011;4940;50.900;4.672;2023-03-01T07:04:10;16.43;;;7.90;;
9801;SDS011;4940;50.900;4.672;2023-03-01T07:06:38;15.03;;;6.73;;
9801;SDS011;4940;50.900;4.672;2023-03-01T07:09:06;14.87;;;7.27;;
9801;SDS011;4940;50.900;4.672;2023-03-01T07:11:33;10.77;;;6.47;;
9801;SDS011;4940;50.900;4.672;2023-03-01T07:14:00;13.57;;;7.63;;
9801;SDS011;4940;50.900;4.672;2023-03-01T07:16:29;14.27;;;7.60;;
9801;SDS011;4940;50.900;4.672;2023-03-01T07:18:56;12.60;;;8.47;;
9801;SDS011;4940;50.900;4.672;2023-03-01T07:21:24;15.97;;;9.77;;
9801;SDS011;4940;50.900;4.672;2023-03-01T07:23:51;14.33;;;11.20;;
9801;SDS011;4940;50.900;4.672;2023-03-01T07:26:18;17.87;;;12.97;;
9801;SDS011;4940;50.900;4.672;2023-03-01T07:28:46;22.90;;;14.97;;
9801;SDS011;4940;50.900;4.672;2023-03-01T07:31:13;21.90;;;19.57;;
9801;SDS011;4940;50.900;4.672;2023-03-01T07:33:42;25.30;;;19.83;;
9801;SDS011;4940;50.900;4.672;2023-03-01T07:36:09;22.40;;;20.17;;
9801;SDS011;4940;50.900;4.672;2023-03-01T07:38:36;25.13;;;21.53;;
9801;SDS011;4940;50.900;4.672;2023-03-01T07:41:04;23.83;;;21.33;;
9801;SDS011;4940;50.900;4.672;2023-03-01T07:43:32;27.87;;;22.77;;
9801;SDS011;4940;50.900;4.672;2023-03-01T07:46:00;29.23;;;22.97;;
9801;SDS011;4940;50.900;4.672;2023-03-01T07:48:27;27.47;;;23.17;;
9801;SDS011;4940;50.900;4.672;2023-03-01T07:50:59;31.93;;;23.40;;
9801;SDS011;4940;50.900;4.672;2023-03-01T07:53:26;27.03;;;21.97;;
9801;SDS011;4940;50.900;4.672;2023-03-01T07:56:00;25.00;;;22.40;;
9801;SDS011;4940;50.900;4.672;2023-03-01T07:58:28;26.90;;;24.20;;
9801;SDS011;4940;50.900;4.672;2023-03-01T08:00:55;25.63;;;23.00;;
9801;SDS011;4940;50.900;4.672;2023-03-01T08:03:23;27.90;;;25.00;;
9801;SDS011;4940;50.900;4.672;2023-03-01T08:05:50;27.27;;;24.70;;
9801;SDS011;4940;50.900;4.672;2023-03-01T08:08:19;23.47;;;20.33;;
9801;SDS011;4940;50.900;4.672;2023-03-01T08:10:46;21.07;;;17.57;;
9801;SDS011;4940;50.900;4.672;2023-03-01T08:13:14;17.07;;;13.63;;
9801;SDS011;4940;50.900;4.672;2023-03-01T08:15:41;17.23;;;10.87;;
9801;SDS011;4940;50.900;4.672;2023-03-01T08:18:08;13.10;;;8.70;;
9801;SDS011;4940;50.900;4.672;2023-03-01T08:20:36;11.20;;;7.27;;
9801;SDS011;4940;50.900;4.672;2023-03-01T08:23:04;13.57;;;7.30;;
9801;SDS011;4940;50.900;4.672;2023-03-01T08:25:33;11.00;;;6.82;;
9801;SDS011;4940;50.900;4.672;2023-03-01T08:28:00;10.00;;;6.47;;
9801;SDS011;4940;50.900;4.672;2023-03-01T08:30:27;11.07;;;6.28;;
9801;SDS011;4940;50.900;4.672;2023-03-01T08:32:55;9.70;;;6.65;;
9801;SDS011;4940;50.900;4.672;2023-03-01T08:35:22;11.27;;;6.90;;
9801;SDS011;4940;50.900;4.672;2023-03-01T08:37:50;10.07;;;6.13;;
9801;SDS011;4940;50.900;4.672;2023-03-01T08:40:17;8.98;;;6.47;;
9801;SDS011;4940;50.900;4.672;2023-03-01T08:42:46;9.93;;;6.38;;
9801;SDS011;4940;50.900;4.672;2023-03-01T08:45:13;11.25;;;6.97;;
9801;SDS011;4940;50.900;4.672;2023-03-01T08:47:43;9.13;;;6.32;;
9801;SDS011;4940;50.900;4.672;2023-03-01T08:50:11;9.93;;;6.72;;
9801;SDS011;4940;50.900;4.672;2023-03-01T08:52:38;9.43;;;6.47;;
9801;SDS011;4940;50.900;4.672;2023-03-01T08:55:06;10.18;;;6.32;;
9801;SDS011;4940;50.900;4.672;2023-03-01T08:57:34;9.52;;;7.00;;
9801;SDS011;4940;50.900;4.672;2023-03-01T09:00:03;10.80;;;6.65;;
9801;SDS011;4940;50.900;4.672;2023-03-01T09:02:34;11.45;;;7.38;;
9801;SDS011;4940;50.900;4.672;2023-03-01T09:05:02;9.70;;;6.55;;
9801;SDS011;4940;50.900;4.672;2023-03-01T09:07:29;13.38;;;6.63;;
9801;SDS011;4940;50.900;4.672;2023-03-01T09:09:56;10.90;;;6.80;;
9801;SDS011;4940;50.900;4.672;2023-03-01T09:12:24;10.45;;;6.93;;
9801;SDS011;4940;50.900;4.672;2023-03-01T09:14:51;9.60;;;6.78;;
9801;SDS011;4940;50.900;4.672;2023-03-01T09:17:20;13.30;;;7.25;;
9801;SDS011;4940;50.900;4.672;2023-03-01T09:19:47;10.55;;;7.43;;
9801;SDS011;4940;50.900;4.672;2023-03-01T09:22:15;11.32;;;6.97;;
9801;SDS011;4940;50.900;4.672;2023-03-01T09:24:42;10.65;;;7.15;;
9801;SDS011;4940;50.900;4.672;2023-03-01T09:27:10;12.35;;;7.05;;
9801;SDS011;4940;50.900;4.672;2023-03-01T09:29:39;10.95;;;7.03;;
9801;SDS011;4940;50.900;4.672;2023-03-01T09:32:07;12.80;;;6.50;;
9801;SDS011;4940;50.900;4.672;2023-03-01T09:34:35;9.40;;;6.60;;
9801;SDS011;4940;50.900;4.672;2023-03-01T09:37:23;10.38;;;7.22;;
9801;SDS011;4940;50.900;4.672;2023-03-01T09:39:50;12.90;;;7.10;;
9801;SDS011;4940;50.900;4.672;2023-03-01T09:42:18;11.35;;;6.97;;
9801;SDS011;4940;50.900;4.672;2023-03-01T09:44:47;12.60;;;7.82;;
9801;SDS011;4940;50.900;4.672;2023-03-01T09:47:18;11.30;;;7.28;;
9801;SDS011;4940;50.900;4.672;2023-03-01T09:49:50;9.63;;;6.97;;
9801;SDS011;4940;50.900;4.672;2023-03-01T09:52:26;11.43;;;7.38;;
9801;SDS011;4940;50.900;4.672;2023-03-01T09:55:00;12.98;;;8.00;;
9801;SDS011;4940;50.900;4.672;2023-03-01T09:57:28;15.02;;;7.88;;
9801;SDS011;4940;50.900;4.672;2023-03-01T10:00:08;11.63;;;6.93;;
9801;SDS011;4940;50.900;4.672;2023-03-01T10:02:43;11.40;;;7.28;;
9801;SDS011;4940;50.900;4.672;2023-03-01T10:05:18;10.93;;;7.25;;
9801;SDS011;4940;50.900;4.672;2023-03-01T10:07:55;11.32;;;7.28;;
9801;SDS011;4940;50.900;4.672;2023-03-01T10:10:31;12.27;;;7.47;;
9801;SDS011;4940;50.900;4.672;2023-03-01T10:13:10;11.80;;;6.95;;
9801;SDS011;4940;50.900;4.672;2023-03-01T10:15:43;12.65;;;8.00;;
9801;SDS011;4940;50.900;4.672;2023-03-01T10:18:14;11.90;;;7.53;;
9801;SDS011;4940;50.900;4.672;2023-03-01T10:20:48;12.30;;;7.45;;
9801;SDS011;4940;50.900;4.672;2023-03-01T10:23:19;10.77;;;6.95;;
9801;SDS011;4940;50.900;4.672;2023-03-01T10:25:48;13.23;;;7.72;;
9801;SDS011;4940;50.900;4.672;2023-03-01T10:28:28;12.00;;;7.32;;
9801;SDS011;4940;50.900;4.672;2023-03-01T10:31:00;13.20;;;6.97;;
9801;SDS011;4940;50.900;4.672;2023-03-01T10:33:29;12.30;;;7.45;;
9801;SDS011;4940;50.900;4.672;2023-03-01T10:36:00;14.35;;;8.15;;
9801;SDS011;4940;50.900;4.672;2023-03-01T10:38:30;13.20;;;7.87;;
9801;SDS011;4940;50.900;4.672;2023-03-01T10:40:59;13.82;;;7.25;;
9801;SDS011;4940;50.900;4.672;2023-03-01T10:43:32;12.80;;;6.93;;
9801;SDS011;4940;50.900;4.672;2023-03-01T10:46:21;12.70;;;8.05;;
9801;SDS011;4940;50.900;4.672;2023-03-01T10:48:55;14.10;;;6.97;;
9801;SDS011;4940;50.900;4.672;2023-03-01T10:51:34;12.00;;;7.32;;
9801;SDS011;4940;50.900;4.672;2023-03-01T10:54:02;12.73;;;6.97;;
9801;SDS011;4940;50.900;4.672;2023-03-01T10:56:30;12.52;;;6.35;;
9801;SDS011;4940;50.900;4.672;2023-03-01T10:59:19;10.07;;;6.50;;
9801;SDS011;4940;50.900;4.672;2023-03-01T11:02:02;10.05;;;6.40;;
9801;SDS011;4940;50.900;4.672;2023-03-01T11:04:56;11.00;;;7.13;;
9801;SDS011;4940;50.900;4.672;2023-03-01T11:07:26;9.52;;;6.28;;
9801;SDS011;4940;50.900;4.672;2023-03-01T11:09:53;12.65;;;6.82;;
9801;SDS011;4940;50.900;4.672;2023-03-01T11:12:21;11.98;;;7.00;;
9801;SDS011;4940;50.900;4.672;2023-03-01T11:14:49;13.20;;;6.45;;
9801;SDS011;4940;50.900;4.672;2023-03-01T11:17:18;11.20;;;6.57;;
9801;SDS011;4940;50.900;4.672;2023-03-01T11:20:01;10.35;;;6.53;;
9801;SDS011;4940;50.900;4.672;2023-03-01T11:22:32;11.70;;;6.72;;
9801;SDS011;4940;50.900;4.672;2023-03-01T11:25:02;13.77;;;6.80;;
9801;SDS011;4940;50.900;4.672;2023-03-01T11:27:31;11.82;;;6.45;;
9801;SDS011;4940;50.900;4.672;2023-03-01T11:29:59;10.45;;;6.40;;
9801;SDS011;4940;50.900;4.672;2023-03-01T11:32:32;10.55;;;5.97;;
9801;SDS011;4940;50.900;4.672;2023-03-01T11:35:07;10.13;;;6.38;;
9801;SDS011;4940;50.900;4.672;2023-03-01T11:37:46;12.07;;;6.15;;
9801;SDS011;4940;50.900;4.672;2023-03-01T11:40:22;11.75;;;6.18;;
9801;SDS011;4940;50.900;4.672;2023-03-01T11:42:54;10.18;;;5.70;;
9801;SDS011;4940;50.900;4.672;2023-03-01T11:45:30;10.75;;;6.15;;
9801;SDS011;4940;50.900;4.672;2023-03-01T11:48:06;10.57;;;6.35;;
9801;SDS011;4940;50.900;4.672;2023-03-01T11:50:50;12.10;;;6.32;;
9801;SDS011;4940;50.900;4.672;2023-03-01T11:53:31;10.02;;;5.93;;
9801;SDS011;4940;50.900;4.672;2023-03-01T11:56:24;12.02;;;7.07;;
9801;SDS011;4940;50.900;4.672;2023-03-01T11:59:00;9.25;;;6.03;;
9801;SDS011;4940;50.900;4.672;2023-03-01T12:01:40;11.43;;;6.47;;
9801;SDS011;4940;50.900;4.672;2023-03-01T12:04:31;14.02;;;6.20;;
9801;SDS011;4940;50.900;4.672;2023-03-01T12:07:17;12.68;;;6.43;;
9801;SDS011;4940;50.900;4.672;2023-03-01T12:09:57;9.38;;;6.22;;
9801;SDS011;4940;50.900;4.672;2023-03-01T12:12:39;12.23;;;6.57;;
9801;SDS011;4940;50.900;4.672;2023-03-01T12:21:11;12.85;;;6.63;;
9801;SDS011;4940;50.900;4.672;2023-03-01T12:26:58;12.38;;;6.10;;
9801;SDS011;4940;50.900;4.672;2023-03-01T12:29:37;11.88;;;6.85;;
9801;SDS011;4940;50.900;4.672;2023-03-01T12:35:09;12.00;;;6.22;;
9801;SDS011;4940;50.900;4.672;2023-03-01T12:37:55;14.73;;;6.55;;
9801;SDS011;4940;50.900;4.672;2023-03-01T12:43:22;9.43;;;5.82;;
9801;SDS011;4940;50.900;4.672;2023-03-01T12:46:08;10.88;;;6.35;;
9801;SDS011;4940;50.900;4.672;2023-03-01T12:48:47;9.60;;;5.78;;
9801;SDS011;4940;50.900;4.672;2023-03-01T12:51:23;9.90;;;5.78;;
9801;SDS011;4940;50.900;4.672;2023-03-01T12:53:54;8.55;;;5.72;;
9801;SDS011;4940;50.900;4.672;2023-03-01T12:56:24;9.98;;;6.05;;
9801;SDS011;4940;50.900;4.672;2023-03-01T12:59:00;13.70;;;5.85;;
9801;SDS011;4940;50.900;4.672;2023-03-01T13:01:39;8.55;;;6.00;;
9801;SDS011;4940;50.900;4.672;2023-03-01T13:04:14;9.93;;;6.00;;
9801;SDS011;4940;50.900;4.672;2023-03-01T13:07:08;11.23;;;6.20;;
9801;SDS011;4940;50.900;4.672;2023-03-01T13:09:44;12.13;;;5.85;;
9801;SDS011;4940;50.900;4.672;2023-03-01T13:15:29;9.60;;;5.75;;
9801;SDS011;4940;50.900;4.672;2023-03-01T13:17:59;10.93;;;5.85;;
9801;SDS011;4940;50.900;4.672;2023-03-01T13:20:29;9.75;;;6.07;;
9801;SDS011;4940;50.900;4.672;2023-03-01T13:23:00;10.57;;;6.00;;
9801;SDS011;4940;50.900;4.672;2023-03-01T13:25:33;10.73;;;5.72;;
9801;SDS011;4940;50.900;4.672;2023-03-01T13:40:04;12.02;;;6.05;;
9801;SDS011;4940;50.900;4.672;2023-03-01T13:42:48;9.35;;;5.45;;
9801;SDS011;4940;50.900;4.672;2023-03-01T13:45:21;9.77;;;5.47;;
9801;SDS011;4940;50.900;4.672;2023-03-01T13:47:54;9.93;;;5.65;;
9801;SDS011;4940;50.900;4.672;2023-03-01T13:50:27;12.35;;;6.40;;
9801;SDS011;4940;50.900;4.672;2023-03-01T13:52:56;16.83;;;7.80;;
9801;SDS011;4940;50.900;4.672;2023-03-01T13:55:27;10.15;;;6.50;;
9801;SDS011;4940;50.900;4.672;2023-03-01T13:58:03;10.82;;;6.55;;
9801;SDS011;4940;50.900;4.672;2023-03-01T14:00:40;10.50;;;5.85;;
9801;SDS011;4940;50.900;4.672;2023-03-01T14:03:12;9.50;;;5.70;;
9801;SDS011;4940;50.900;4.672;2023-03-01T14:05:43;10.30;;;5.95;;
9801;SDS011;4940;50.900;4.672;2023-03-01T14:08:24;10.52;;;6.10;;
9801;SDS011;4940;50.900;4.672;2023-03-01T14:10:54;9.45;;;5.47;;
9801;SDS011;4940;50.900;4.672;2023-03-01T14:13:35;9.60;;;5.60;;
9801;SDS011;4940;50.900;4.672;2023-03-01T14:16:19;9.85;;;6.03;;
9801;SDS011;4940;50.900;4.672;2023-03-01T14:18:56;9.13;;;5.82;;
9801;SDS011;4940;50.900;4.672;2023-03-01T14:21:33;11.77;;;5.88;;
9801;SDS011;4940;50.900;4.672;2023-03-01T14:24:01;9.82;;;5.72;;
9801;SDS011;4940;50.900;4.672;2023-03-01T14:26:29;8.10;;;5.38;;
9801;SDS011;4940;50.900;4.672;2023-03-01T14:29:00;10.77;;;6.63;;
9801;SDS011;4940;50.900;4.672;2023-03-01T14:31:32;8.57;;;5.30;;
9801;SDS011;4940;50.900;4.672;2023-03-01T14:34:02;10.35;;;5.88;;
9801;SDS011;4940;50.900;4.672;2023-03-01T14:36:30;11.20;;;5.13;;
9801;SDS011;4940;50.900;4.672;2023-03-01T14:39:00;10.60;;;5.60;;
9801;SDS011;4940;50.900;4.672;2023-03-01T14:41:32;10.25;;;6.60;;
9801;SDS011;4940;50.900;4.672;2023-03-01T14:44:02;12.07;;;6.25;;
9801;SDS011;4940;50.900;4.672;2023-03-01T14:46:33;8.15;;;5.65;;
9801;SDS011;4940;50.900;4.672;2023-03-01T14:49:03;12.77;;;5.95;;
9801;SDS011;4940;50.900;4.672;2023-03-01T14:51:36;9.68;;;5.13;;
9801;SDS011;4940;50.900;4.672;2023-03-01T14:54:10;8.60;;;5.35;;
9801;SDS011;4940;50.900;4.672;2023-03-01T14:56:47;8.55;;;5.10;;
9801;SDS011;4940;50.900;4.672;2023-03-01T14:59:18;10.32;;;5.75;;
9801;SDS011;4940;50.900;4.672;2023-03-01T15:01:48;10.88;;;5.80;;
9801;SDS011;4940;50.900;4.672;2023-03-01T15:04:16;17.80;;;6.18;;
9801;SDS011;4940;50.900;4.672;2023-03-01T15:06:45;8.18;;;4.93;;
9801;SDS011;4940;50.900;4.672;2023-03-01T15:09:14;8.75;;;5.47;;
9801;SDS011;4940;50.900;4.672;2023-03-01T15:11:43;10.00;;;5.45;;
9801;SDS011;4940;50.900;4.672;2023-03-01T15:14:27;8.60;;;5.55;;
9801;SDS011;4940;50.900;4.672;2023-03-01T15:17:20;13.93;;;5.22;;
9801;SDS011;4940;50.900;4.672;2023-03-01T15:19:56;8.02;;;5.00;;
9801;SDS011;4940;50.900;4.672;2023-03-01T15:22:26;10.63;;;6.00;;
9801;SDS011;4940;50.900;4.672;2023-03-01T15:24:54;8.73;;;5.70;;
9801;SDS011;4940;50.900;4.672;2023-03-01T15:27:21;8.30;;;5.32;;
9801;SDS011;4940;50.900;4.672;2023-03-01T15:29:51;9.43;;;5.60;;
9801;SDS011;4940;50.900;4.672;2023-03-01T15:32:24;35.42;;;6.05;;
9801;SDS011;4940;50.900;4.672;2023-03-01T15:34:54;7.38;;;4.78;;
9801;SDS011;4940;50.900;4.672;2023-03-01T15:37:43;9.52;;;5.25;;
9801;SDS011;4940;50.900;4.672;2023-03-01T15:40:19;7.60;;;4.93;;
9801;SDS011;4940;50.900;4.672;2023-03-01T15:42:50;9.35;;;4.65;;
9801;SDS011;4940;50.900;4.672;2023-03-01T15:45:22;7.47;;;5.03;;
9801;SDS011;4940;50.900;4.672;2023-03-01T15:47:52;8.65;;;4.95;;
9801;SDS011;4940;50.900;4.672;2023-03-01T15:50:23;9.55;;;5.63;;
9801;SDS011;4940;50.900;4.672;2023-03-01T15:52:54;9.45;;;4.65;;
9801;SDS011;4940;50.900;4.672;2023-03-01T15:55:23;8.07;;;4.43;;
9801;SDS011;4940;50.900;4.672;2023-03-01T15:57:58;8.48;;;4.82;;